createdAt,value
2023-01-21T00:00:45.436Z,6.94
2023-01-21T00:05:49.160Z,6.91
2023-01-21T00:10:52.739Z,6.91
2023-01-21T00:15:57.611Z,6.83
2023-01-21T00:21:01.423Z,6.70
2023-01-21T00:26:07.203Z,6.74
2023-01-21T00:31:12.764Z,6.66
2023-01-21T00:36:18.379Z,6.66
2023-01-21T00:41:21.950Z,6.59
2023-01-21T00:46:28.751Z,6.42
2023-01-21T00:51:32.211Z,6.36
2023-01-21T00:56:36.388Z,6.33
2023-01-21T01:01:41.636Z,6.28
2023-01-21T01:06:45.615Z,6.26
2023-01-21T01:11:49.284Z,6.18
2023-01-21T01:16:54.112Z,6.22
2023-01-21T01:22:00.610Z,6.22
2023-01-21T01:27:04.407Z,6.20
2023-01-21T01:32:09.557Z,6.19
2023-01-21T01:37:13.004Z,6.25
2023-01-21T01:42:17.465Z,6.28
2023-01-21T01:47:23.125Z,6.41
2023-01-21T01:52:27.063Z,6.53
2023-01-21T01:57:34.060Z,6.71
2023-01-21T02:02:40.713Z,6.87
2023-01-21T02:07:45.379Z,7.06
2023-01-21T02:12:49.171Z,7.19
2023-01-21T02:18:03.117Z,7.38
2023-01-21T02:23:11.038Z,7.49
2023-01-21T02:28:31.692Z,7.61
2023-01-21T02:33:57.178Z,7.79
2023-01-21T02:39:08.394Z,7.60
2023-01-21T02:44:16.236Z,7.95
2023-01-21T02:49:25.534Z,7.98
2023-01-21T02:54:52.507Z,8.16
2023-01-21T02:59:56.777Z,8.21
2023-01-21T03:05:09.956Z,8.41
2023-01-21T03:10:19.849Z,8.26
2023-01-21T03:15:43.286Z,8.41
2023-01-21T03:20:51.732Z,8.69
2023-01-21T03:25:55.669Z,8.68
2023-01-21T03:31:04.114Z,8.85
2023-01-21T03:36:13.079Z,8.85
2023-01-21T03:41:20.729Z,8.96
2023-01-21T03:46:28.793Z,8.99
2023-01-21T03:51:36.910Z,8.98
2023-01-21T03:56:40.434Z,8.99
2023-01-21T04:01:44.273Z,8.75
2023-01-21T04:06:49.276Z,8.20
2023-01-21T04:11:53.297Z,8.80
2023-01-21T04:16:57.080Z,9.18
2023-01-21T04:22:02.039Z,9.30
2023-01-21T04:27:05.598Z,9.27
2023-01-21T04:32:09.118Z,9.26
2023-01-21T04:37:14.252Z,9.38
2023-01-21T04:42:17.983Z,9.42
2023-01-21T04:47:21.563Z,9.17
2023-01-21T04:52:26.698Z,9.35
2023-01-21T04:57:30.224Z,9.27
2023-01-21T05:02:34.200Z,9.47
2023-01-21T05:07:39.160Z,9.48
2023-01-21T05:12:42.895Z,9.48
2023-01-21T05:17:46.559Z,9.50
2023-01-21T05:22:51.335Z,9.53
2023-01-21T05:28:21.119Z,9.36
2023-01-21T05:33:26.316Z,9.55
2023-01-21T05:38:31.554Z,9.60
2023-01-21T05:43:35.762Z,9.03
2023-01-21T05:48:39.242Z,9.55
2023-01-21T05:53:44.066Z,9.62
2023-01-21T05:58:47.492Z,9.70
2023-01-21T06:03:51.259Z,9.58
2023-01-21T06:08:56.194Z,9.69
2023-01-21T06:13:59.575Z,9.75
2023-01-21T06:19:03.623Z,9.75
2023-01-21T06:24:08.866Z,9.59
2023-01-21T06:29:12.633Z,9.48
2023-01-21T06:34:16.013Z,9.70
2023-01-21T06:39:20.753Z,9.17
2023-01-21T06:44:24.606Z,9.57
2023-01-21T06:49:28.394Z,9.52
2023-01-21T06:54:33.703Z,9.53
2023-01-21T06:59:37.263Z,9.59
2023-01-21T07:04:41.060Z,9.49
2023-01-21T07:09:46.176Z,9.21
2023-01-21T07:14:49.918Z,9.19
2023-01-21T07:19:53.307Z,9.17
2023-01-21T07:24:58.159Z,9.37
2023-01-21T07:30:01.727Z,9.02
2023-01-21T07:35:05.880Z,9.38
2023-01-21T07:40:16.977Z,9.37
2023-01-21T07:45:20.525Z,9.35
2023-01-21T07:50:24.272Z,9.45
2023-01-21T07:55:29.974Z,9.43
2023-01-21T08:00:33.390Z,9.67
2023-01-21T08:05:36.988Z,9.59
2023-01-21T08:10:41.897Z,9.46
2023-01-21T08:15:45.274Z,9.62
2023-01-21T08:20:48.945Z,9.59
2023-01-21T08:25:54.107Z,9.76
2023-01-21T08:31:04.113Z,9.84
2023-01-21T08:36:09.068Z,9.82
2023-01-21T08:41:14.202Z,9.69
2023-01-21T08:46:17.893Z,9.80
2023-01-21T08:51:21.878Z,8.26
2023-01-21T08:56:26.928Z,9.61
2023-01-21T09:01:30.656Z,9.74
2023-01-21T09:06:35.014Z,9.68
2023-01-21T09:11:39.747Z,9.44
2023-01-21T09:16:43.173Z,9.52
2023-01-21T09:21:46.873Z,9.16
2023-01-21T09:26:52.306Z,8.11
2023-01-21T09:31:55.676Z,9.06
2023-01-21T09:36:59.598Z,9.40
2023-01-21T09:42:04.515Z,9.68
2023-01-21T09:47:15.758Z,9.48
2023-01-21T09:52:25.709Z,9.78
2023-01-21T09:58:08.985Z,10.18
2023-01-21T10:03:18.541Z,9.51
2023-01-21T10:08:28.187Z,9.93
2023-01-21T10:13:56.275Z,9.44
2023-01-21T10:19:01.816Z,9.53
2023-01-21T10:24:10.607Z,9.96
2023-01-21T10:29:18.006Z,9.49
2023-01-21T10:34:21.980Z,9.26
2023-01-21T10:39:38.435Z,9.77
2023-01-21T10:44:48.930Z,9.10
2023-01-21T10:50:01.241Z,8.94
2023-01-21T10:55:13.554Z,10.17
2023-01-21T11:00:22.554Z,10.16
2023-01-21T11:05:27.163Z,9.70
2023-01-21T11:10:31.358Z,9.32
2023-01-21T11:15:47.200Z,9.72
2023-01-21T11:20:51.067Z,9.94
2023-01-21T11:26:02.254Z,10.10
2023-01-21T11:31:11.139Z,10.07
2023-01-21T11:36:16.989Z,9.92
2023-01-21T11:41:22.701Z,9.22
2023-01-21T11:46:35.209Z,9.10
2023-01-21T11:51:39.988Z,9.80
2023-01-21T11:56:53.933Z,8.58
2023-01-21T12:02:06.644Z,9.79
2023-01-21T12:07:18.977Z,9.48
2023-01-21T12:12:32.461Z,10.60
2023-01-21T12:17:48.461Z,9.94
2023-01-21T12:23:00.953Z,11.08
2023-01-21T12:28:12.859Z,10.01
2023-01-21T12:33:20.839Z,10.63
2023-01-21T12:38:27.068Z,10.25
2023-01-21T12:43:33.355Z,10.91
2023-01-21T12:48:40.407Z,10.52
2023-01-21T12:53:47.389Z,10.11
2023-01-21T12:58:55.912Z,10.98
2023-01-21T13:04:04.919Z,10.31
2023-01-21T13:09:13.737Z,10.46
2023-01-21T13:14:24.846Z,10.43
2023-01-21T13:19:29.703Z,11.71
2023-01-21T13:24:34.940Z,10.88
2023-01-21T13:29:46.158Z,10.23
2023-01-21T13:34:56.384Z,10.42
2023-01-21T13:40:18.096Z,10.93
2023-01-21T13:45:27.676Z,10.10
2023-01-21T13:50:39.879Z,9.86
2023-01-21T13:55:51.211Z,9.67
2023-01-21T14:00:58.580Z,10.78
2023-01-21T14:06:12.515Z,10.44
2023-01-21T14:11:20.066Z,9.84
2023-01-21T14:16:43.702Z,10.45
2023-01-21T14:22:23.008Z,10.60
2023-01-21T14:27:33.079Z,10.72
2023-01-21T14:32:40.505Z,9.97
2023-01-21T14:37:58.142Z,9.26
2023-01-21T14:43:03.019Z,10.74
2023-01-21T14:48:31.487Z,11.12
2023-01-21T14:53:58.912Z,10.87
2023-01-21T14:59:04.027Z,8.30
2023-01-21T15:04:20.689Z,9.79
2023-01-21T15:09:28.220Z,10.53
2023-01-21T15:14:34.498Z,9.97
2023-01-21T15:19:39.501Z,9.52
2023-01-21T15:25:02.777Z,9.49
2023-01-21T15:30:27.945Z,9.94
2023-01-21T15:35:35.993Z,9.12
2023-01-21T15:40:42.001Z,9.97
2023-01-21T15:45:50.019Z,9.45
2023-01-21T15:50:59.988Z,10.06
2023-01-21T15:56:24.343Z,9.13
2023-01-21T16:01:34.173Z,9.17
2023-01-21T16:06:45.314Z,9.08
2023-01-21T16:11:57.002Z,9.86
2023-01-21T16:17:10.103Z,8.81
2023-01-21T16:22:19.159Z,8.81
2023-01-21T16:27:24.955Z,9.12
2023-01-21T16:32:30.820Z,9.30
2023-01-21T16:37:35.919Z,9.20
2023-01-21T16:42:41.588Z,7.62
2023-01-21T16:47:45.554Z,9.47
2023-01-21T16:52:50.858Z,8.14
2023-01-21T16:57:56.099Z,8.88
2023-01-21T17:03:00.583Z,9.01
2023-01-21T17:08:10.505Z,8.93
2023-01-21T17:13:16.284Z,8.19
2023-01-21T17:18:22.954Z,9.47
2023-01-21T17:23:30.672Z,8.43
2023-01-21T17:28:39.613Z,8.91
2023-01-21T17:33:43.939Z,9.26
2023-01-21T17:38:48.883Z,9.16
2023-01-21T17:43:53.358Z,8.56
2023-01-21T17:48:58.840Z,8.94
2023-01-21T17:54:05.373Z,9.25
2023-01-21T17:59:34.257Z,8.64
2023-01-21T18:04:37.786Z,8.88
2023-01-21T18:09:42.593Z,8.41
2023-01-21T18:14:46.387Z,9.20
2023-01-21T18:19:49.827Z,7.87
2023-01-21T18:24:55.170Z,8.97
2023-01-21T18:29:59.221Z,8.63
2023-01-21T18:35:02.595Z,9.01
2023-01-21T18:40:13.793Z,9.66
2023-01-21T18:45:19.427Z,9.24
2023-01-21T18:50:24.099Z,8.92
2023-01-21T18:55:29.746Z,9.21
2023-01-21T19:00:34.536Z,8.65
2023-01-21T19:05:39.651Z,8.29
2023-01-21T19:10:44.450Z,9.37
2023-01-21T19:15:48.559Z,8.90
2023-01-21T19:20:51.991Z,8.51
2023-01-21T19:25:58.524Z,8.02
2023-01-21T19:31:02.042Z,7.97
2023-01-21T19:36:12.387Z,9.27
2023-01-21T19:41:17.168Z,9.77
2023-01-21T19:46:22.938Z,8.01
2023-01-21T19:51:26.996Z,8.54
2023-01-21T19:56:33.092Z,9.40
2023-01-21T20:01:36.520Z,8.80
2023-01-21T20:06:41.825Z,8.94
2023-01-21T20:11:46.756Z,9.37
2023-01-21T20:16:51.993Z,9.00
2023-01-21T20:22:02.088Z,9.75
2023-01-21T20:27:09.636Z,9.75
2023-01-21T20:32:14.490Z,8.93
2023-01-21T20:37:17.978Z,9.28
2023-01-21T20:42:22.779Z,9.36
2023-01-21T20:47:37.879Z,9.59
2023-01-21T20:52:42.189Z,8.75
2023-01-21T20:57:48.470Z,9.35
2023-01-21T21:02:55.277Z,9.13
2023-01-21T21:07:58.755Z,9.12
2023-01-21T21:13:03.728Z,10.09
2023-01-21T21:18:07.490Z,9.05
2023-01-21T21:23:13.625Z,9.23
2023-01-21T21:28:18.932Z,8.90
2023-01-21T21:33:23.197Z,9.10
2023-01-21T21:38:26.764Z,9.28
2023-01-21T21:43:39.989Z,9.22
2023-01-21T21:48:44.222Z,9.63
2023-01-21T21:53:56.915Z,9.35
2023-01-21T21:59:01.779Z,8.58
2023-01-21T22:04:05.655Z,7.89
2023-01-21T22:09:09.341Z,9.36
2023-01-21T22:14:14.147Z,7.44
2023-01-21T22:19:17.691Z,8.35
2023-01-21T22:24:21.102Z,8.39
2023-01-21T22:29:26.051Z,8.44
2023-01-21T22:34:29.698Z,8.86
2023-01-21T22:39:33.645Z,8.71
2023-01-21T22:44:39.248Z,8.86
2023-01-21T22:49:43.373Z,9.22
2023-01-21T22:54:48.828Z,8.16
2023-01-21T22:59:54.764Z,8.47
2023-01-21T23:04:58.343Z,9.40
2023-01-21T23:10:02.141Z,8.86
2023-01-21T23:15:07.980Z,8.21
2023-01-21T23:20:12.262Z,8.69
2023-01-21T23:25:15.944Z,8.02
2023-01-21T23:30:21.327Z,9.21
2023-01-21T23:35:24.731Z,8.47
2023-01-21T23:40:28.265Z,8.59
2023-01-21T23:45:33.226Z,8.49
2023-01-21T23:50:36.802Z,8.46
2023-01-21T23:55:40.288Z,8.46
